Time;durP1;ratioP1;P1;durP2;ratioP2;P2;SDS_P1;SDS_P2;PMS_P1;PMS_P2;Temp;Humidity;BMP_temperature;BMP_pressure;BME280_temperature;BME280_humidity;BME280_pressure;Samples;Min_cycle;Max_cycle;Signal;HPM_P1;HPM_P2
2022/07/15 00:01:55;;;;;;;0.40;0.40;;;17.60;99.90;;;;;;4784973;29;20138;-75
2022/07/15 00:04:23;;;;;;;0.50;0.38;;;17.60;99.90;;;;;;4793428;29;20170;-75
2022/07/15 00:06:50;;;;;;;0.50;0.30;;;17.60;99.90;;;;;;4782395;29;20142;-75
2022/07/15 00:09:17;;;;;;;0.90;0.55;;;17.60;99.90;;;;;;4746114;30;20125;-76
2022/07/15 00:11:43;;;;;;;1.88;0.38;;;17.50;99.90;;;;;;4776648;29;20061;-75
2022/07/15 00:14:11;;;;;;;0.15;0.15;;;17.50;99.90;;;;;;4784767;29;20114;-75
2022/07/15 00:16:37;;;;;;;0.47;0.40;;;17.50;99.90;;;;;;4771827;30;20060;-76
2022/07/15 00:19:04;;;;;;;1.15;0.50;;;17.40;99.90;;;;;;4764150;30;20067;-76
2022/07/15 00:21:31;;;;;;;0.93;0.50;;;17.40;99.90;;;;;;4772317;29;20104;-75
2022/07/15 00:23:59;;;;;;;0.45;0.35;;;17.30;99.90;;;;;;4776158;29;20174;-75
2022/07/15 00:26:25;;;;;;;0.38;0.38;;;17.30;99.90;;;;;;4797581;29;20086;-76
2022/07/15 00:28:53;;;;;;;0.50;0.40;;;17.30;99.90;;;;;;4797276;29;20197;-75
2022/07/15 00:31:20;;;;;;;0.60;0.38;;;17.20;99.90;;;;;;4772583;29;20111;-75
2022/07/15 00:33:47;;;;;;;0.70;0.47;;;17.20;99.90;;;;;;4751607;30;20060;-75
2022/07/15 00:36:14;;;;;;;0.85;0.40;;;17.10;99.90;;;;;;4781212;29;20063;-75
2022/07/15 00:38:41;;;;;;;1.25;0.65;;;17.10;99.90;;;;;;4748040;30;20424;-75
2022/07/15 00:41:08;;;;;;;0.60;0.32;;;17.10;99.90;;;;;;4781012;29;20138;-75
2022/07/15 00:43:35;;;;;;;1.10;0.60;;;17.00;99.90;;;;;;4779570;29;20059;-75
2022/07/15 00:46:02;;;;;;;1.00;0.70;;;17.00;99.90;;;;;;4766975;29;20141;-75
2022/07/15 00:48:29;;;;;;;0.90;0.60;;;17.00;99.90;;;;;;4760621;30;20109;-75
2022/07/15 00:50:55;;;;;;;0.70;0.40;;;16.90;99.90;;;;;;4756919;29;20063;-75
2022/07/15 00:53:22;;;;;;;1.40;0.60;;;16.90;99.90;;;;;;4754851;29;20086;-75
2022/07/15 00:55:49;;;;;;;1.05;0.60;;;16.80;99.90;;;;;;4781722;29;20062;-75
2022/07/15 00:58:18;;;;;;;1.25;0.73;;;16.80;99.90;;;;;;4772109;30;20450;-75
2022/07/15 01:00:46;;;;;;;0.65;0.40;;;16.70;99.90;;;;;;4760655;30;20076;-74
2022/07/15 01:03:14;;;;;;;1.17;0.60;;;16.70;99.90;;;;;;4781164;29;20055;-75
2022/07/15 01:05:41;;;;;;;0.90;0.60;;;16.70;99.90;;;;;;4768694;30;20071;-75
2022/07/15 01:08:08;;;;;;;2.00;0.95;;;16.70;99.90;;;;;;4757293;30;20111;-75
2022/07/15 01:10:36;;;;;;;0.90;0.47;;;16.70;99.90;;;;;;4778683;30;20069;-75
2022/07/15 01:13:04;;;;;;;1.10;0.50;;;16.60;99.90;;;;;;4774220;29;20450;-74
2022/07/15 01:15:32;;;;;;;1.13;0.55;;;16.60;99.90;;;;;;4761643;30;20566;-74
2022/07/15 01:18:01;;;;;;;1.33;0.65;;;16.60;99.90;;;;;;4764265;30;20060;-74
2022/07/15 01:20:28;;;;;;;0.98;0.68;;;16.50;99.90;;;;;;4764600;30;20497;-74
2022/07/15 01:22:55;;;;;;;1.63;0.77;;;16.50;99.90;;;;;;4770057;29;20116;-75
2022/07/15 01:25:22;;;;;;;0.55;0.38;;;16.50;99.90;;;;;;4782465;29;20115;-75
2022/07/15 01:27:48;;;;;;;0.95;0.75;;;16.40;99.90;;;;;;4779192;30;20120;-75
2022/07/15 01:30:16;;;;;;;0.52;0.32;;;16.40;99.90;;;;;;4779415;30;20120;-75
2022/07/15 01:41:41;;;;;;;0.68;0.50;;;16.10;99.90;;;;;;5810786;24;20078;31
2022/07/15 01:44:08;;;;;;;0.93;0.85;;;16.10;99.90;;;;;;4802512;29;20059;-87
2022/07/15 01:46:35;;;;;;;0.93;0.63;;;16.10;99.90;;;;;;4776935;30;20070;-88
2022/07/15 01:51:50;;;;;;;1.15;0.73;;;16.10;99.90;;;;;;4794123;29;20078;-87
2022/07/15 01:54:17;;;;;;;0.77;0.50;;;16.10;99.90;;;;;;4771570;29;20084;-86
2022/07/15 01:56:44;;;;;;;1.38;0.88;;;16.10;99.90;;;;;;4763289;29;20107;-87
2022/07/15 01:59:11;;;;;;;1.08;0.68;;;16.10;99.90;;;;;;4760944;30;20498;-87
2022/07/15 02:01:38;;;;;;;2.08;1.00;;;16.10;99.90;;;;;;4760439;29;20066;-87
2022/07/15 02:04:05;;;;;;;0.68;0.60;;;16.00;99.90;;;;;;4787885;29;20082;-87
2022/07/15 02:06:32;;;;;;;1.15;0.82;;;16.00;99.90;;;;;;4767930;30;20537;-87
2022/07/15 02:08:59;;;;;;;2.05;0.90;;;16.00;99.90;;;;;;4784317;30;20080;-87
2022/07/15 02:11:26;;;;;;;1.95;1.02;;;15.90;99.90;;;;;;4783718;30;20066;-87
2022/07/15 02:13:59;;;;;;;1.20;0.75;;;15.90;99.90;;;;;;4759050;30;20059;-87
2022/07/15 02:16:26;;;;;;;1.48;0.80;;;15.80;99.90;;;;;;4760001;29;20065;-87
2022/07/15 02:18:53;;;;;;;1.85;1.10;;;15.80;99.90;;;;;;4772730;29;20460;-87
2022/07/15 02:21:20;;;;;;;1.70;0.93;;;15.70;99.90;;;;;;4770724;29;20070;-87
2022/07/15 02:23:47;;;;;;;1.10;0.70;;;15.70;99.90;;;;;;4774283;29;20103;-86
2022/07/15 02:26:14;;;;;;;1.45;0.73;;;15.70;99.90;;;;;;4757212;29;20058;-87
2022/07/15 02:28:42;;;;;;;1.50;0.70;;;15.70;99.90;;;;;;4758482;30;20415;-86
2022/07/15 02:31:09;;;;;;;2.10;1.00;;;15.70;99.90;;;;;;4756208;29;20465;-87
2022/07/15 02:33:37;;;;;;;1.38;0.80;;;15.70;99.90;;;;;;4785395;29;20059;-87
2022/07/15 02:36:04;;;;;;;1.75;1.30;;;15.70;99.90;;;;;;4758057;30;20067;-87
2022/07/15 02:38:31;;;;;;;2.20;1.27;;;15.70;99.90;;;;;;4753780;30;20059;-87
2022/07/15 02:40:58;;;;;;;1.88;0.95;;;15.60;99.90;;;;;;4753674;30;20446;-87
2022/07/15 02:43:25;;;;;;;3.28;1.63;;;15.60;99.90;;;;;;4756295;30;20093;-87
2022/07/15 02:45:52;;;;;;;2.03;0.85;;;15.60;99.90;;;;;;4741690;30;20549;-87
2022/07/15 02:48:19;;;;;;;1.40;1.05;;;15.50;99.90;;;;;;4737391;30;20409;-86
2022/07/15 02:50:46;;;;;;;1.73;1.05;;;15.50;99.90;;;;;;4737991;30;20063;-87
2022/07/15 02:53:13;;;;;;;1.67;0.95;;;15.50;99.90;;;;;;4746992;30;20511;-87
2022/07/15 02:55:40;;;;;;;1.33;0.95;;;15.50;99.90;;;;;;4767058;30;20108;-87
2022/07/15 02:58:07;;;;;;;1.50;0.90;;;15.40;99.90;;;;;;4756243;30;20503;-88
2022/07/15 03:00:34;;;;;;;1.58;1.10;;;15.40;99.90;;;;;;4752033;30;20063;-87
2022/07/15 03:03:01;;;;;;;1.63;1.10;;;15.40;99.90;;;;;;4750526;30;20063;-87
2022/07/15 03:05:28;;;;;;;2.13;1.02;;;15.40;99.90;;;;;;4748875;30;20070;-87
2022/07/15 03:07:55;;;;;;;1.48;0.98;;;15.30;99.90;;;;;;4748138;30;20051;-87
2022/07/15 03:10:22;;;;;;;1.27;0.82;;;15.30;99.90;;;;;;4753144;30;20063;-88
2022/07/15 03:12:49;;;;;;;0.70;0.70;;;15.30;99.90;;;;;;4749412;30;20059;-89
2022/07/15 03:15:16;;;;;;;1.33;0.98;;;15.40;99.90;;;;;;4757199;30;20063;-88
2022/07/15 03:17:44;;;;;;;3.00;1.10;;;15.30;99.90;;;;;;4744227;30;20052;-91
2022/07/15 03:20:11;;;;;;;1.35;0.80;;;15.30;99.90;;;;;;4737562;30;20056;-89
2022/07/15 03:22:38;;;;;;;1.00;0.70;;;15.30;99.90;;;;;;4737943;30;20068;-91
2022/07/15 03:25:05;;;;;;;1.00;0.73;;;15.30;99.90;;;;;;4755257;30;20055;-90
2022/07/15 03:27:33;;;;;;;1.88;1.00;;;15.20;99.90;;;;;;4746823;30;20051;-87
2022/07/15 03:30:01;;;;;;;1.08;0.70;;;15.20;99.90;;;;;;4739071;30;20064;-87
2022/07/15 03:32:28;;;;;;;1.33;0.70;;;15.20;99.90;;;;;;4746002;30;20570;-86
2022/07/15 03:34:57;;;;;;;1.77;1.02;;;15.20;99.90;;;;;;4751211;30;20062;-87
2022/07/15 03:37:24;;;;;;;2.28;0.90;;;15.20;99.90;;;;;;4755169;30;20055;-87
2022/07/15 03:39:51;;;;;;;0.88;0.60;;;15.20;99.90;;;;;;4766974;30;20055;-87
2022/07/15 03:42:18;;;;;;;1.27;0.95;;;15.20;99.90;;;;;;4753781;30;20113;-86
2022/07/15 03:44:45;;;;;;;1.30;0.80;;;15.10;99.90;;;;;;4743521;30;20058;-87
2022/07/15 03:47:12;;;;;;;1.25;0.60;;;15.10;99.90;;;;;;4754333;30;20059;-87
2022/07/15 03:49:39;;;;;;;2.03;0.80;;;15.10;99.90;;;;;;4773375;29;20384;-87
2022/07/15 03:52:07;;;;;;;0.90;0.70;;;15.10;99.90;;;;;;4758212;30;20446;-86
2022/07/15 03:54:34;;;;;;;0.77;0.52;;;15.10;99.90;;;;;;4757107;30;20059;-87
2022/07/15 03:57:01;;;;;;;1.58;0.98;;;15.10;99.90;;;;;;4757511;30;20051;-88
2022/07/15 03:59:28;;;;;;;1.02;0.70;;;15.10;99.90;;;;;;4750907;30;20060;-88
2022/07/15 04:01:55;;;;;;;1.40;0.80;;;15.10;99.90;;;;;;4750077;30;20095;-87
2022/07/15 04:04:22;;;;;;;1.08;0.60;;;15.00;99.90;;;;;;4752186;30;20051;-87
2022/07/15 04:06:49;;;;;;;1.85;0.90;;;14.90;99.90;;;;;;4745107;30;20074;-86
2022/07/15 04:09:16;;;;;;;0.80;0.57;;;14.90;99.90;;;;;;4740904;30;20056;-87
2022/07/15 04:11:43;;;;;;;0.82;0.57;;;14.80;99.90;;;;;;4748106;30;20141;-87
2022/07/15 04:14:11;;;;;;;1.17;0.65;;;14.80;99.90;;;;;;4758420;30;20051;-88
2022/07/15 04:16:38;;;;;;;1.33;0.80;;;14.80;99.90;;;;;;4753253;30;20096;-89
2022/07/15 04:19:06;;;;;;;1.30;0.75;;;14.90;99.90;;;;;;4741632;30;20319;-87
2022/07/15 04:21:33;;;;;;;0.88;0.57;;;14.80;99.90;;;;;;4743923;30;20091;-88
2022/07/15 04:24:00;;;;;;;1.08;0.68;;;14.80;99.90;;;;;;4767841;30;20100;-89
2022/07/15 04:26:27;;;;;;;1.10;0.57;;;14.80;99.90;;;;;;4756673;30;20150;-87
2022/07/15 04:28:55;;;;;;;1.23;0.90;;;14.80;99.90;;;;;;4740546;30;20067;-88
2022/07/15 04:31:23;;;;;;;1.45;0.82;;;14.80;99.90;;;;;;4755099;30;20052;-89
2022/07/15 04:33:50;;;;;;;1.83;0.70;;;14.80;99.90;;;;;;4769293;30;20055;-89
2022/07/15 04:36:17;;;;;;;1.65;0.73;;;14.80;99.90;;;;;;4756004;30;20059;-89
2022/07/15 04:38:44;;;;;;;0.60;0.50;;;14.80;99.90;;;;;;4758707;30;20093;-88
2022/07/15 04:41:11;;;;;;;0.82;0.50;;;14.80;99.90;;;;;;4759874;30;20067;-89
2022/07/15 04:43:39;;;;;;;1.08;0.60;;;14.90;99.90;;;;;;4754291;30;20063;-89
2022/07/15 04:46:06;;;;;;;2.00;0.65;;;14.90;99.90;;;;;;4764663;30;20866;-90
2022/07/15 04:51:19;;;;;;;1.15;0.50;;;14.90;99.90;;;;;;4772425;30;20086;-88
2022/07/15 04:53:46;;;;;;;0.65;0.50;;;14.90;99.90;;;;;;4758958;30;20503;-88
2022/07/15 04:56:13;;;;;;;1.13;0.50;;;14.90;99.90;;;;;;4756429;30;20372;-89
2022/07/15 04:58:40;;;;;;;0.90;0.52;;;14.90;99.90;;;;;;4757334;30;20068;-87
2022/07/15 05:01:07;;;;;;;0.68;0.52;;;14.90;99.90;;;;;;4756680;30;20147;-89
2022/07/15 05:03:35;;;;;;;1.70;0.57;;;15.00;99.90;;;;;;4752491;30;20066;-89
2022/07/15 05:06:04;;;;;;;0.82;0.47;;;15.00;99.90;;;;;;4748390;30;20060;-89
2022/07/15 05:08:31;;;;;;;0.93;0.55;;;15.10;99.90;;;;;;4762354;30;20052;-88
2022/07/15 05:10:58;;;;;;;0.70;0.60;;;15.00;99.90;;;;;;4740466;30;20416;-89
2022/07/15 05:13:25;;;;;;;0.52;0.40;;;15.10;99.90;;;;;;4750798;30;20055;-89
2022/07/15 05:15:52;;;;;;;0.95;0.40;;;15.10;99.90;;;;;;4769295;30;20065;-89
2022/07/15 05:18:20;;;;;;;0.70;0.65;;;15.00;99.90;;;;;;4751135;30;20047;-88
2022/07/15 05:20:47;;;;;;;0.75;0.50;;;15.00;99.90;;;;;;4755805;30;20130;-89
2022/07/15 05:23:16;;;;;;;1.00;0.50;;;14.90;99.90;;;;;;4754349;30;20066;-89
2022/07/15 05:25:45;;;;;;;0.45;0.40;;;14.90;99.90;;;;;;4755003;30;20063;-89
2022/07/15 05:28:12;;;;;;;0.45;0.40;;;14.80;99.90;;;;;;4768728;30;20077;-89
2022/07/15 05:30:39;;;;;;;0.52;0.47;;;14.80;99.90;;;;;;4754127;30;20047;-88
2022/07/15 05:33:06;;;;;;;0.65;0.40;;;14.80;99.90;;;;;;4752924;30;20075;-89
2022/07/15 05:35:33;;;;;;;0.50;0.40;;;14.80;99.90;;;;;;4752606;30;20122;-89
2022/07/15 05:38:01;;;;;;;0.65;0.40;;;14.80;99.90;;;;;;4745114;30;20075;-89
2022/07/15 05:40:29;;;;;;;0.70;0.40;;;14.70;99.90;;;;;;4744395;30;20066;-89
2022/07/15 05:42:56;;;;;;;0.35;0.30;;;14.60;99.90;;;;;;4755689;30;20069;-89
2022/07/15 05:45:24;;;;;;;0.43;0.30;;;14.40;99.90;;;;;;4754113;30;20070;-89
2022/07/15 05:47:51;;;;;;;0.32;0.30;;;14.40;99.90;;;;;;4757399;30;20065;-88
2022/07/15 05:50:19;;;;;;;0.15;0.15;;;14.40;99.90;;;;;;4745835;30;20055;-89
2022/07/15 05:52:46;;;;;;;0.40;0.32;;;14.40;99.90;;;;;;4760307;30;20062;-89
2022/07/15 05:55:13;;;;;;;0.70;0.47;;;14.50;99.90;;;;;;4774139;30;20062;-92
2022/07/15 05:57:40;;;;;;;0.20;0.15;;;14.60;99.90;;;;;;4753147;30;20055;-89
2022/07/15 06:00:12;;;;;;;0.22;0.20;;;14.60;99.90;;;;;;4758546;30;20059;-92
2022/07/15 06:02:39;;;;;;;0.20;0.20;;;14.70;99.90;;;;;;4775499;30;20525;-91
2022/07/15 06:05:08;;;;;;;0.40;0.28;;;14.70;99.90;;;;;;4751369;30;20079;-92
2022/07/15 06:07:36;;;;;;;0.45;0.30;;;14.80;99.90;;;;;;4745462;30;20598;-90
2022/07/15 06:10:04;;;;;;;0.10;0.10;;;14.90;99.90;;;;;;4744793;30;20067;-90
2022/07/15 06:12:32;;;;;;;0.20;0.20;;;14.90;99.90;;;;;;4749872;30;20366;-89
2022/07/15 06:14:59;;;;;;;0.65;0.40;;;14.90;99.90;;;;;;4742169;30;20067;-90
2022/07/15 06:17:27;;;;;;;0.20;0.10;;;15.00;99.90;;;;;;4760717;30;20055;-90
2022/07/15 06:19:54;;;;;;;0.10;0.10;;;15.10;99.90;;;;;;4750600;30;20066;-89
2022/07/15 06:22:21;;;;;;;0.38;0.20;;;15.20;99.90;;;;;;4755665;30;20062;-89
2022/07/15 06:24:48;;;;;;;0.20;0.20;;;15.30;99.90;;;;;;4756379;30;20059;-89
2022/07/15 06:27:17;;;;;;;0.30;0.30;;;15.40;99.90;;;;;;4786520;30;20063;-90
2022/07/15 06:29:44;;;;;;;0.22;0.20;;;15.50;99.90;;;;;;4772991;30;20059;-90
2022/07/15 06:32:12;;;;;;;0.17;0.17;;;15.60;99.90;;;;;;4769248;30;20056;-90
2022/07/15 06:34:39;;;;;;;0.28;0.28;;;15.60;99.90;;;;;;4769121;30;20066;-89
2022/07/15 06:37:07;;;;;;;0.38;0.30;;;15.70;99.90;;;;;;4759453;30;20131;-88
2022/07/15 06:39:34;;;;;;;0.28;0.28;;;15.80;99.90;;;;;;4755599;30;20066;-89
2022/07/15 06:42:01;;;;;;;0.32;0.17;;;15.90;99.90;;;;;;4757259;30;20071;-89
2022/07/15 06:44:28;;;;;;;0.77;0.60;;;16.00;99.90;;;;;;4772248;30;20411;-89
2022/07/15 06:46:56;;;;;;;0.95;0.68;;;16.00;99.90;;;;;;4757180;30;20063;-88
2022/07/15 06:49:26;;;;;;;0.55;0.40;;;16.10;99.90;;;;;;4755818;30;20129;-89
2022/07/15 06:51:53;;;;;;;0.80;0.50;;;16.20;99.90;;;;;;4760151;30;20059;-89
2022/07/15 06:54:21;;;;;;;0.85;0.30;;;16.30;99.90;;;;;;4747967;30;20047;-88
2022/07/15 06:56:48;;;;;;;0.52;0.38;;;16.40;99.90;;;;;;4755670;30;20583;-89
2022/07/15 06:59:15;;;;;;;0.20;0.20;;;16.50;99.90;;;;;;4755073;30;20064;-90
2022/07/15 07:01:42;;;;;;;0.47;0.30;;;16.50;99.90;;;;;;4757879;30;20537;-90
2022/07/15 07:04:10;;;;;;;1.10;0.38;;;16.60;99.90;;;;;;4761442;30;20137;-89
2022/07/15 07:06:37;;;;;;;0.55;0.30;;;16.70;99.90;;;;;;4760428;30;20093;-89
2022/07/15 07:09:05;;;;;;;0.25;0.20;;;16.70;99.90;;;;;;4759765;30;20062;-90
2022/07/15 07:11:33;;;;;;;0.55;0.30;;;16.80;99.90;;;;;;4757362;30;20577;-89
2022/07/15 07:14:00;;;;;;;0.70;0.30;;;16.80;99.90;;;;;;4758836;30;20059;-89
2022/07/15 07:16:27;;;;;;;1.00;0.40;;;16.90;99.90;;;;;;4757960;30;20051;-89
2022/07/15 07:18:54;;;;;;;0.20;0.20;;;17.00;99.90;;;;;;4754992;30;20162;-89
2022/07/15 07:21:21;;;;;;;0.68;0.22;;;17.00;99.90;;;;;;4756408;30;20059;-88
2022/07/15 07:23:56;;;;;;;0.20;0.20;;;17.10;99.90;;;;;;4757176;30;20055;-89
2022/07/15 07:26:23;;;;;;;0.10;0.10;;;17.20;99.90;;;;;;4757233;30;20069;-89
2022/07/15 07:28:51;;;;;;;0.22;0.20;;;17.20;99.90;;;;;;4756801;30;20055;-90
2022/07/15 07:31:22;;;;;;;0.45;0.30;;;17.30;99.90;;;;;;4757449;30;20363;-89
2022/07/15 07:33:50;;;;;;;0.40;0.25;;;17.40;99.90;;;;;;4758047;30;20059;-90
2022/07/15 07:36:17;;;;;;;0.60;0.30;;;17.40;99.90;;;;;;4755719;30;20222;-89
2022/07/15 07:38:44;;;;;;;1.05;0.50;;;17.40;99.90;;;;;;4755628;30;20084;-89
2022/07/15 07:41:17;;;;;;;0.63;0.50;;;17.40;99.90;;;;;;4757104;30;20256;-89
2022/07/15 07:43:45;;;;;;;0.85;0.40;;;17.50;99.90;;;;;;4755468;30;20143;-89
2022/07/15 07:46:12;;;;;;;0.70;0.60;;;17.60;99.90;;;;;;4757012;30;20138;-89
2022/07/15 07:48:40;;;;;;;0.40;0.20;;;17.70;99.90;;;;;;4758142;30;20114;-88
2022/07/15 07:51:08;;;;;;;0.70;0.30;;;17.90;99.90;;;;;;4752926;30;20460;-89
2022/07/15 07:53:35;;;;;;;0.25;0.25;;;18.00;99.90;;;;;;4753769;30;20051;-89
2022/07/15 07:56:03;;;;;;;0.55;0.30;;;18.00;99.90;;;;;;4753893;30;20309;-90
2022/07/15 07:58:30;;;;;;;0.70;0.30;;;18.10;99.90;;;;;;4753226;30;20853;-89
2022/07/15 08:00:57;;;;;;;0.45;0.35;;;18.10;99.90;;;;;;4752900;30;20096;-89
2022/07/15 08:03:25;;;;;;;0.90;0.40;;;18.20;99.90;;;;;;4753802;30;20062;-89
2022/07/15 08:05:53;;;;;;;0.47;0.40;;;18.20;99.90;;;;;;4753879;30;20063;-89
2022/07/15 08:08:20;;;;;;;0.93;0.50;;;18.30;99.90;;;;;;4753499;30;20059;-88
2022/07/15 08:10:49;;;;;;;0.28;0.28;;;18.30;99.90;;;;;;4753075;30;20059;-89
2022/07/15 08:13:16;;;;;;;0.68;0.20;;;18.40;99.90;;;;;;4753256;30;20054;-89
2022/07/15 08:15:45;;;;;;;0.98;0.40;;;18.50;99.90;;;;;;4752912;30;20074;-89
2022/07/15 08:18:14;;;;;;;0.52;0.40;;;18.50;99.90;;;;;;4752584;30;20499;-89
2022/07/15 08:20:42;;;;;;;0.43;0.40;;;18.60;99.90;;;;;;4767715;30;20065;-89
2022/07/15 08:23:09;;;;;;;0.65;0.40;;;18.60;99.90;;;;;;4752819;30;20332;-89
2022/07/15 08:25:36;;;;;;;0.30;0.30;;;18.60;99.90;;;;;;4767666;30;20052;-88
2022/07/15 08:28:05;;;;;;;0.70;0.47;;;18.70;99.90;;;;;;4767292;30;20063;-89
2022/07/15 08:30:33;;;;;;;0.82;0.40;;;18.70;99.90;;;;;;4767202;30;20147;-88
2022/07/15 08:33:00;;;;;;;0.30;0.30;;;18.80;99.90;;;;;;4765486;30;20093;-89
2022/07/15 08:35:27;;;;;;;0.68;0.30;;;18.80;99.90;;;;;;4749387;30;20382;-89
2022/07/15 08:37:54;;;;;;;0.50;0.30;;;18.80;99.90;;;;;;4750146;30;20063;-89
2022/07/15 08:40:24;;;;;;;0.40;0.30;;;18.80;99.90;;;;;;4750299;30;20123;-90
2022/07/15 08:42:51;;;;;;;0.40;0.40;;;18.90;99.90;;;;;;4758645;30;20070;-89
2022/07/15 08:45:19;;;;;;;0.65;0.40;;;19.00;99.90;;;;;;4769534;30;20047;-89
2022/07/15 08:47:46;;;;;;;0.57;0.32;;;19.00;99.80;;;;;;4767873;30;20071;-89
2022/07/15 08:50:20;;;;;;;0.52;0.40;;;19.20;99.40;;;;;;4767740;30;20063;-89
2022/07/15 08:52:47;;;;;;;0.43;0.30;;;19.20;98.80;;;;;;4763724;30;20108;-89
2022/07/15 08:55:17;;;;;;;0.47;0.40;;;19.20;98.50;;;;;;4767510;30;20059;-89
2022/07/15 08:57:48;;;;;;;0.30;0.30;;;19.30;98.50;;;;;;4753538;30;20051;-88
2022/07/15 09:00:16;;;;;;;0.88;0.43;;;19.30;98.40;;;;;;4753827;30;20579;-95
2022/07/15 09:02:43;;;;;;;0.30;0.30;;;19.30;96.90;;;;;;4755420;30;20514;-95
2022/07/15 09:05:27;;;;;;;0.50;0.40;;;19.30;97.10;;;;;;4754625;30;20055;-92
2022/07/15 09:08:01;;;;;;;0.43;0.30;;;19.40;96.90;;;;;;4768941;30;20073;-91
2022/07/15 09:10:53;;;;;;;0.30;0.30;;;19.50;97.20;;;;;;4769045;30;20047;-93
2022/07/15 09:13:32;;;;;;;0.50;0.40;;;19.50;96.60;;;;;;4768086;30;20055;-96
2022/07/15 09:16:04;;;;;;;1.13;0.60;;;19.70;96.10;;;;;;4752524;30;20075;-88
2022/07/15 09:18:35;;;;;;;0.70;0.40;;;19.80;95.50;;;;;;4751839;30;20120;-90
2022/07/15 09:21:03;;;;;;;0.30;0.20;;;19.80;96.70;;;;;;4752813;30;20059;-91
2022/07/15 09:23:31;;;;;;;0.38;0.22;;;19.80;95.30;;;;;;4751207;30;20154;-88
2022/07/15 09:26:21;;;;;;;0.25;0.25;;;19.90;95.00;;;;;;4752501;30;20410;-89
2022/07/15 09:28:50;;;;;;;0.38;0.22;;;19.90;94.20;;;;;;4766599;30;20154;-88
2022/07/15 09:34:24;;;;;;;0.20;0.20;;;20.10;93.80;;;;;;4767322;30;20532;-89
2022/07/15 09:36:54;;;;;;;0.20;0.20;;;20.20;92.90;;;;;;4741271;30;20562;-89
2022/07/15 09:39:22;;;;;;;1.02;0.50;;;20.30;93.50;;;;;;4747576;30;20130;-89
2022/07/15 09:41:49;;;;;;;0.50;0.38;;;20.40;93.20;;;;;;4750828;30;20553;-88
2022/07/15 09:44:22;;;;;;;0.60;0.40;;;20.50;91.60;;;;;;4755311;30;20792;-89
2022/07/15 09:46:50;;;;;;;0.30;0.30;;;20.60;92.30;;;;;;4773298;30;20078;-89
2022/07/15 09:49:27;;;;;;;0.43;0.30;;;20.60;92.20;;;;;;4775793;30;20061;-89
2022/07/15 09:51:59;;;;;;;0.63;0.30;;;20.70;91.50;;;;;;4787454;30;20730;-90
2022/07/15 09:54:31;;;;;;;0.20;0.20;;;20.80;91.00;;;;;;4757870;30;20186;-89
2022/07/15 09:57:02;;;;;;;1.65;0.30;;;20.80;90.70;;;;;;4757997;30;20055;-89
2022/07/15 09:59:30;;;;;;;0.57;0.40;;;20.80;90.40;;;;;;4758465;30;20067;-89
2022/07/15 10:02:05;;;;;;;0.25;0.20;;;20.90;89.20;;;;;;4757857;30;20071;-89
2022/07/15 10:04:33;;;;;;;0.40;0.22;;;20.90;88.60;;;;;;4768218;30;20082;-89
2022/07/15 10:07:00;;;;;;;0.75;0.40;;;20.90;89.40;;;;;;4757286;30;20059;-89
2022/07/15 10:09:47;;;;;;;0.32;0.30;;;20.90;90.00;;;;;;4761674;30;20065;-91
2022/07/15 10:12:23;;;;;;;0.30;0.20;;;20.90;89.50;;;;;;4754791;30;20063;-89
2022/07/15 10:15:02;;;;;;;0.70;0.45;;;21.10;90.20;;;;;;4755789;30;20155;-90
2022/07/15 10:17:48;;;;;;;0.15;0.15;;;21.20;88.60;;;;;;4767870;30;20061;-89
2022/07/15 10:20:40;;;;;;;0.38;0.22;;;21.20;86.60;;;;;;4754398;30;20066;-89
2022/07/15 10:23:31;;;;;;;0.20;0.20;;;21.20;86.50;;;;;;4775772;30;20512;-90
2022/07/15 10:26:39;;;;;;;0.50;0.28;;;21.30;84.10;;;;;;4770493;30;20128;-90
2022/07/15 10:29:07;;;;;;;0.95;0.30;;;21.40;82.60;;;;;;4769954;30;20059;-89
2022/07/15 10:31:36;;;;;;;0.40;0.30;;;21.50;83.30;;;;;;4756359;30;20059;-89
2022/07/15 10:34:03;;;;;;;0.47;0.30;;;21.50;85.00;;;;;;4749598;30;20121;-89
2022/07/15 10:36:39;;;;;;;0.47;0.30;;;21.70;86.30;;;;;;4784823;29;20063;-92
2022/07/15 10:39:10;;;;;;;0.22;0.22;;;21.70;83.60;;;;;;4784814;29;20074;-91
2022/07/15 10:41:58;;;;;;;0.77;0.25;;;21.80;82.30;;;;;;4756890;30;20066;-89
2022/07/15 10:44:34;;;;;;;0.52;0.40;;;21.90;81.40;;;;;;4786221;29;20055;-88
2022/07/15 10:47:12;;;;;;;0.32;0.28;;;22.00;81.60;;;;;;4758424;30;20120;-88
2022/07/15 10:49:41;;;;;;;0.25;0.25;;;22.10;79.60;;;;;;4791730;29;20065;-89
2022/07/15 10:52:19;;;;;;;0.40;0.40;;;22.20;80.40;;;;;;4758874;30;20059;-89
2022/07/15 10:54:50;;;;;;;;;;;22.20;79.40;;;;;;4787078;30;20063;-89
2022/07/15 10:57:19;;;;;;;0.47;0.30;;;22.30;79.50;;;;;;4770919;30;20341;-88
2022/07/15 10:59:50;;;;;;;0.38;0.38;;;22.40;76.80;;;;;;4755959;30;20066;-90
2022/07/15 11:02:19;;;;;;;0.25;0.22;;;22.50;77.10;;;;;;4770868;30;20063;-91
2022/07/15 11:04:47;;;;;;;0.20;0.20;;;22.50;76.30;;;;;;4756907;30;20079;-89
2022/07/15 11:07:14;;;;;;;0.50;0.30;;;22.50;77.30;;;;;;4756704;30;20063;-90
2022/07/15 11:10:07;;;;;;;0.75;0.43;;;22.60;77.50;;;;;;4787507;29;20055;-91
2022/07/15 11:12:36;;;;;;;0.30;0.30;;;22.60;76.50;;;;;;4787610;29;20088;-89
2022/07/15 11:15:13;;;;;;;0.80;0.40;;;22.70;76.40;;;;;;4787976;29;20082;-92
2022/07/15 11:17:42;;;;;;;0.40;0.40;;;22.90;75.90;;;;;;4758845;30;20482;-89
2022/07/15 11:20:13;;;;;;;0.40;0.30;;;23.00;75.10;;;;;;4755638;30;20059;-89
2022/07/15 11:22:44;;;;;;;0.20;0.20;;;23.10;74.70;;;;;;4764439;30;20059;-89
2022/07/15 11:25:22;;;;;;;0.52;0.20;;;23.20;74.00;;;;;;4751645;30;20117;-89
2022/07/15 11:28:07;;;;;;;0.20;0.20;;;23.20;74.40;;;;;;4751007;30;20067;-88
2022/07/15 11:30:37;;;;;;;0.65;0.35;;;23.30;74.90;;;;;;4749598;30;20067;-87
2022/07/15 11:33:07;;;;;;;0.57;0.38;;;23.50;73.50;;;;;;4772466;30;20142;-89
2022/07/15 11:35:49;;;;;;;0.50;0.30;;;23.70;73.10;;;;;;4755207;30;20066;-89
2022/07/15 11:38:17;;;;;;;0.70;0.50;;;23.90;71.30;;;;;;4753601;30;20472;-88
2022/07/15 11:46:18;;;;;;;0.30;0.20;;;24.80;69.90;;;;;;4764323;30;20157;-89
2022/07/15 11:48:45;;;;;;;0.52;0.40;;;25.10;68.10;;;;;;4750554;30;20080;-89
2022/07/15 11:51:13;;;;;;;0.30;0.30;;;25.40;67.60;;;;;;4751115;30;20059;-90
2022/07/15 11:53:41;;;;;;;0.35;0.35;;;25.50;66.50;;;;;;4760758;30;20539;-88
2022/07/15 11:56:10;;;;;;;0.50;0.40;;;25.70;66.70;;;;;;4752763;30;20062;-90
2022/07/15 11:58:42;;;;;;;0.32;0.30;;;26.00;66.20;;;;;;4753528;30;20097;-90
2022/07/15 12:01:13;;;;;;;0.40;0.40;;;26.00;64.80;;;;;;4753115;30;20062;-89
2022/07/15 12:03:42;;;;;;;0.30;0.30;;;26.00;64.50;;;;;;4751346;30;20376;-89
2022/07/15 12:06:31;;;;;;;0.52;0.40;;;26.00;64.10;;;;;;4764954;30;20081;-89
2022/07/15 12:09:03;;;;;;;0.70;0.50;;;26.10;65.00;;;;;;4765229;30;20165;-89
2022/07/15 12:11:37;;;;;;;0.80;0.57;;;26.30;65.10;;;;;;4764877;30;20059;-89
2022/07/15 12:14:10;;;;;;;0.30;0.30;;;26.80;64.50;;;;;;4766776;30;20555;-89
2022/07/15 12:16:42;;;;;;;0.30;0.30;;;27.20;64.10;;;;;;4768068;30;20700;-90
2022/07/15 12:19:19;;;;;;;0.40;0.40;;;27.60;62.90;;;;;;4769832;30;20055;-90
2022/07/15 12:21:48;;;;;;;0.30;0.30;;;27.60;61.80;;;;;;4784868;29;20065;-90
2022/07/15 12:24:17;;;;;;;0.55;0.32;;;28.10;61.30;;;;;;4762060;30;20069;-89
2022/07/15 12:26:50;;;;;;;0.45;0.38;;;28.40;61.40;;;;;;4754368;30;20305;-90
2022/07/15 12:29:18;;;;;;;0.90;0.60;;;28.60;61.00;;;;;;4783337;29;20066;-90
2022/07/15 12:32:02;;;;;;;0.55;0.40;;;28.70;59.80;;;;;;4759811;30;20066;-90
2022/07/15 12:34:47;;;;;;;0.38;0.38;;;29.00;59.50;;;;;;4769018;30;20510;-91
2022/07/15 12:37:22;;;;;;;0.38;0.38;;;29.60;58.50;;;;;;4783069;29;20070;-90
2022/07/15 12:40:09;;;;;;;0.40;0.40;;;29.60;57.40;;;;;;4754022;30;20359;-90
2022/07/15 12:42:44;;;;;;;0.60;0.50;;;29.40;57.50;;;;;;4751649;30;20075;-90
2022/07/15 12:45:15;;;;;;;0.40;0.40;;;29.50;57.00;;;;;;4766697;30;20063;-90
2022/07/15 12:48:02;;;;;;;0.57;0.45;;;29.50;56.90;;;;;;4767281;30;20051;-90
2022/07/15 12:50:32;;;;;;;0.55;0.40;;;29.60;55.30;;;;;;4782711;30;20059;-90
2022/07/15 12:53:00;;;;;;;0.30;0.30;;;29.50;55.20;;;;;;4755350;30;20056;-90
2022/07/15 12:55:29;;;;;;;0.30;0.30;;;29.80;56.10;;;;;;4755866;30;20114;-90
2022/07/15 12:58:04;;;;;;;0.57;0.40;;;30.60;56.00;;;;;;4772175;30;20067;-90
2022/07/15 13:00:31;;;;;;;1.10;0.73;;;31.00;55.00;;;;;;4770649;30;20104;-90
2022/07/15 13:03:00;;;;;;;0.65;0.50;;;30.60;55.00;;;;;;4763726;30;20448;-91
2022/07/15 13:05:39;;;;;;;0.90;0.40;;;30.50;54.20;;;;;;4763773;30;20055;-90
2022/07/15 13:08:12;;;;;;;1.15;0.50;;;30.50;54.10;;;;;;4749840;30;20397;-90
2022/07/15 13:10:40;;;;;;;0.40;0.40;;;30.50;53.60;;;;;;4750760;30;20445;-89
2022/07/15 13:13:08;;;;;;;0.40;0.40;;;30.90;53.70;;;;;;4757187;30;20059;-89
2022/07/15 13:15:36;;;;;;;0.50;0.40;;;30.60;53.00;;;;;;4755250;30;20067;-91
2022/07/15 13:18:03;;;;;;;0.40;0.40;;;29.70;54.00;;;;;;4754867;30;20571;-89
2022/07/15 13:20:31;;;;;;;0.50;0.47;;;29.80;54.00;;;;;;4756127;30;20056;-91
2022/07/15 13:22:58;;;;;;;0.90;0.60;;;30.30;54.20;;;;;;4754931;30;20488;-89